TPOK1: Kansas River, State-Line, KS

                                SHEF ID:       TPOK1     MARAIS DES CYGNES R NR KS-MO ST
STATION TYPE:

STAGE STAGE(2) RIV-FLOW BAT-LOAD
ft ft cfs volt
Ccp-Rev Ccp-Rev Ccp-Rev Ccp-Rev
(America/Chicago)
06/27 00:00 10.55 10.56 3859 12.53
06/27 01:00 10.83 10.85 4071 12.50
06/27 02:00 11.09 11.13 4272 12.48
06/27 03:00 11.35 11.34 4476 12.46
06/27 04:00 11.56 11.58 4643 12.44
06/27 05:00 11.75 11.74 4796 12.44
06/27 06:00 11.89 11.85 4910 12.41
06/27 07:00 12.01 11.98 5008 12.39
06/27 08:00 12.07 12.05 5058 12.42
06/27 09:00 12.11 12.07 5091 12.99
06/27 10:00 12.10 12.06 5083 13.02
06/27 11:00 12.09 12.10 5074 13.17
06/27 12:00 12.04 12.01 5033 13.39
06/27 13:00 11.98 11.96 4984 13.13
06/27 14:00 11.93 11.90 4943 13.34
06/27 15:00 11.84 11.84 4869 12.97
06/27 16:00 11.77 11.75 4812 12.82
06/27 17:00 11.70 11.66 4755 13.00
06/27 18:00 11.61 11.59 4683 12.85
06/27 19:00 11.55 11.54 4635 12.77
06/27 20:00 11.50 11.50 4595 12.63
06/27 21:00 11.50 11.49 4595 12.59
06/27 22:00 11.48 11.47 4579 12.57
06/27 23:00 11.49 11.49 4587 12.54
Data processed at Sun 28Jun2026 04:52 GMT

NOTICE: If you are parsing this page

Please convert to using our Data API. Starting early 2026 we will be migrating to: https://water.usace.army.mil with modern pages rendered in JavaScript. When this migration completes you will no longer be able to scrape this page! CWMSDataAPI (CDA)

Timeseries IDs (TSIDs)

TSIDs used from left to right in the data table
MKSL.Stage.Inst.1Hour.0.Ccp-Rev
MKSL.Stage-Alt.Inst.1Hour.0.Ccp-Rev
MKSL.Flow.Inst.1Hour.0.Ccp-Rev
MKSL.Volt-Battery Load.Inst.1Hour.0.Ccp-Rev

                            

All information presented herein is the property of the government of the United States of America and may be revised or deleted at any time without prior notice. Dissemination of this information without the expressed written consent of the Public Affairs Office, Tulsa District U.S. Army Corps of Engineers is strictly prohibited. These data are gathered electronically and, as presented, have NOT undergone any form of quality control. These data are NOT guaranteed to be valid or correct.